sensor_id;sensor_type;location;lat;lon;timestamp;pressure;altitude;pressure_sealevel;temperature;humidity
79705;BME280;69940;53.120;8.764;2023-06-10T00:01:44;101860.00;;;17.82;60.84
79705;BME280;69940;53.120;8.764;2023-06-10T00:04:11;101859.00;;;17.78;61.27
79705;BME280;69940;53.120;8.764;2023-06-10T00:06:43;101859.00;;;17.75;61.64
79705;BME280;69940;53.120;8.764;2023-06-10T00:09:11;101858.00;;;17.72;61.71
79705;BME280;69940;53.120;8.764;2023-06-10T00:11:42;101857.00;;;17.68;62.23
79705;BME280;69940;53.120;8.764;2023-06-10T00:14:12;101858.00;;;17.64;62.58
79705;BME280;69940;53.120;8.764;2023-06-10T00:16:46;101858.00;;;17.61;62.78
79705;BME280;69940;53.120;8.764;2023-06-10T00:19:16;101858.00;;;17.58;62.92
79705;BME280;69940;53.120;8.764;2023-06-10T00:21:42;101858.00;;;17.54;63.18
79705;BME280;69940;53.120;8.764;2023-06-10T00:24:12;101856.00;;;17.51;63.38
79705;BME280;69940;53.120;8.764;2023-06-10T00:26:41;101856.00;;;17.47;63.61
79705;BME280;69940;53.120;8.764;2023-06-10T00:29:11;101856.00;;;17.42;63.92
79705;BME280;69940;53.120;8.764;2023-06-10T00:31:42;101857.00;;;17.39;64.22
79705;BME280;69940;53.120;8.764;2023-06-10T00:34:12;101859.00;;;17.36;64.36
79705;BME280;69940;53.120;8.764;2023-06-10T00:36:42;101861.00;;;17.33;64.56
79705;BME280;69940;53.120;8.764;2023-06-10T00:39:12;101861.00;;;17.31;64.79
79705;BME280;69940;53.120;8.764;2023-06-10T00:41:42;101863.00;;;17.28;65.04
79705;BME280;69940;53.120;8.764;2023-06-10T00:44:12;101864.00;;;17.25;65.46
79705;BME280;69940;53.120;8.764;2023-06-10T00:46:42;101865.00;;;17.21;65.73
79705;BME280;69940;53.120;8.764;2023-06-10T00:49:12;101864.00;;;17.18;65.84
79705;BME280;69940;53.120;8.764;2023-06-10T00:51:42;101864.00;;;17.15;66.43
79705;BME280;69940;53.120;8.764;2023-06-10T00:54:14;101865.00;;;17.11;66.81
79705;BME280;69940;53.120;8.764;2023-06-10T00:56:44;101865.00;;;17.07;66.80
79705;BME280;69940;53.120;8.764;2023-06-10T00:59:12;101866.00;;;17.03;66.92
79705;BME280;69940;53.120;8.764;2023-06-10T01:01:42;101867.00;;;17.00;67.17
79705;BME280;69940;53.120;8.764;2023-06-10T01:04:13;101868.00;;;16.97;67.40
79705;BME280;69940;53.120;8.764;2023-06-10T01:09:33;101874.00;;;16.92;67.67
79705;BME280;69940;53.120;8.764;2023-06-10T01:11:53;101876.00;;;16.89;67.92
79705;BME280;69940;53.120;8.764;2023-06-10T01:14:13;101878.00;;;16.86;68.10
79705;BME280;69940;53.120;8.764;2023-06-10T01:16:43;101879.00;;;16.84;68.42
79705;BME280;69940;53.120;8.764;2023-06-10T01:19:12;101881.00;;;16.81;68.42
79705;BME280;69940;53.120;8.764;2023-06-10T01:21:42;101883.00;;;16.78;68.57
79705;BME280;69940;53.120;8.764;2023-06-10T01:24:12;101886.00;;;16.75;68.83
79705;BME280;69940;53.120;8.764;2023-06-10T01:26:43;101888.00;;;16.73;68.74
79705;BME280;69940;53.120;8.764;2023-06-10T01:29:18;101889.00;;;16.70;68.89
79705;BME280;69940;53.120;8.764;2023-06-10T01:31:51;101889.00;;;16.68;69.02
79705;BME280;69940;53.120;8.764;2023-06-10T01:34:15;101889.00;;;16.64;69.37
79705;BME280;69940;53.120;8.764;2023-06-10T01:36:45;101891.00;;;16.60;69.49
79705;BME280;69940;53.120;8.764;2023-06-10T01:39:12;101893.00;;;16.57;69.49
79705;BME280;69940;53.120;8.764;2023-06-10T01:41:42;101896.00;;;16.54;69.94
79705;BME280;69940;53.120;8.764;2023-06-10T01:44:12;101897.00;;;16.50;69.89
79705;BME280;69940;53.120;8.764;2023-06-10T01:46:42;101898.00;;;16.46;70.07
79705;BME280;69940;53.120;8.764;2023-06-10T01:49:12;101899.00;;;16.41;70.45
79705;BME280;69940;53.120;8.764;2023-06-10T01:51:42;101901.00;;;16.38;70.26
79705;BME280;69940;53.120;8.764;2023-06-10T01:54:12;101901.00;;;16.34;70.33
79705;BME280;69940;53.120;8.764;2023-06-10T01:56:42;101901.00;;;16.32;70.39
79705;BME280;69940;53.120;8.764;2023-06-10T01:59:12;101901.00;;;16.30;70.48
79705;BME280;69940;53.120;8.764;2023-06-10T02:01:42;101901.00;;;16.28;70.45
79705;BME280;69940;53.120;8.764;2023-06-10T02:04:12;101902.00;;;16.26;70.52
79705;BME280;69940;53.120;8.764;2023-06-10T02:06:43;101904.00;;;16.23;70.64
79705;BME280;69940;53.120;8.764;2023-06-10T02:09:12;101904.00;;;16.21;70.59
79705;BME280;69940;53.120;8.764;2023-06-10T02:11:41;101903.00;;;16.20;70.61
79705;BME280;69940;53.120;8.764;2023-06-10T02:14:12;101903.00;;;16.18;70.65
79705;BME280;69940;53.120;8.764;2023-06-10T02:16:45;101904.00;;;16.16;70.85
79705;BME280;69940;53.120;8.764;2023-06-10T02:19:13;101907.00;;;16.13;70.88
79705;BME280;69940;53.120;8.764;2023-06-10T02:21:42;101910.00;;;16.12;70.85
79705;BME280;69940;53.120;8.764;2023-06-10T02:24:12;101912.00;;;16.09;70.94
79705;BME280;69940;53.120;8.764;2023-06-10T02:26:42;101914.00;;;16.07;70.90
79705;BME280;69940;53.120;8.764;2023-06-10T02:29:12;101917.00;;;16.05;71.02
79705;BME280;69940;53.120;8.764;2023-06-10T02:31:41;101921.00;;;16.04;71.17
79705;BME280;69940;53.120;8.764;2023-06-10T02:34:11;101924.00;;;16.04;71.22
79705;BME280;69940;53.120;8.764;2023-06-10T02:36:42;101927.00;;;16.04;71.56
79705;BME280;69940;53.120;8.764;2023-06-10T02:39:12;101930.00;;;16.05;71.58
79705;BME280;69940;53.120;8.764;2023-06-10T02:41:42;101931.00;;;16.07;71.93
79705;BME280;69940;53.120;8.764;2023-06-10T02:44:11;101933.00;;;16.09;71.61
79705;BME280;69940;53.120;8.764;2023-06-10T02:46:42;101932.00;;;16.10;71.76
79705;BME280;69940;53.120;8.764;2023-06-10T02:49:12;101932.00;;;16.12;72.07
79705;BME280;69940;53.120;8.764;2023-06-10T02:51:42;101933.00;;;16.13;72.37
79705;BME280;69940;53.120;8.764;2023-06-10T02:54:12;101933.00;;;16.16;72.45
79705;BME280;69940;53.120;8.764;2023-06-10T02:56:42;101933.00;;;16.19;72.36
79705;BME280;69940;53.120;8.764;2023-06-10T02:59:12;101933.00;;;16.22;72.39
79705;BME280;69940;53.120;8.764;2023-06-10T03:01:42;101934.00;;;16.25;72.51
79705;BME280;69940;53.120;8.764;2023-06-10T03:04:15;101932.00;;;16.27;72.49
79705;BME280;69940;53.120;8.764;2023-06-10T03:06:42;101931.00;;;16.29;72.49
79705;BME280;69940;53.120;8.764;2023-06-10T03:09:12;101930.00;;;16.31;72.45
79705;BME280;69940;53.120;8.764;2023-06-10T03:11:42;101929.00;;;16.33;72.45
79705;BME280;69940;53.120;8.764;2023-06-10T03:14:11;101928.00;;;16.35;72.43
79705;BME280;69940;53.120;8.764;2023-06-10T03:16:43;101928.00;;;16.36;72.63
79705;BME280;69940;53.120;8.764;2023-06-10T03:19:11;101930.00;;;16.37;72.59
79705;BME280;69940;53.120;8.764;2023-06-10T03:21:44;101930.00;;;16.37;72.78
79705;BME280;69940;53.120;8.764;2023-06-10T03:24:13;101929.00;;;16.37;72.66
79705;BME280;69940;53.120;8.764;2023-06-10T03:26:42;101929.00;;;16.35;72.71
79705;BME280;69940;53.120;8.764;2023-06-10T03:29:12;101927.00;;;16.34;72.53
79705;BME280;69940;53.120;8.764;2023-06-10T03:31:42;101929.00;;;16.35;72.33
79705;BME280;69940;53.120;8.764;2023-06-10T03:34:12;101929.00;;;16.35;72.48
79705;BME280;69940;53.120;8.764;2023-06-10T03:36:44;101931.00;;;16.36;72.55
79705;BME280;69940;53.120;8.764;2023-06-10T03:39:12;101933.00;;;16.37;72.43
79705;BME280;69940;53.120;8.764;2023-06-10T03:41:42;101936.00;;;16.38;72.39
79705;BME280;69940;53.120;8.764;2023-06-10T03:44:12;101938.00;;;16.38;72.40
79705;BME280;69940;53.120;8.764;2023-06-10T03:46:41;101938.00;;;16.39;72.04
79705;BME280;69940;53.120;8.764;2023-06-10T03:49:13;101939.00;;;16.38;71.94
79705;BME280;69940;53.120;8.764;2023-06-10T03:51:42;101940.00;;;16.36;72.07
79705;BME280;69940;53.120;8.764;2023-06-10T03:54:12;101940.00;;;16.33;72.05
79705;BME280;69940;53.120;8.764;2023-06-10T03:56:41;101940.00;;;16.28;72.13
79705;BME280;69940;53.120;8.764;2023-06-10T03:59:12;101940.00;;;16.24;72.20
79705;BME280;69940;53.120;8.764;2023-06-10T04:01:42;101940.00;;;16.20;72.05
79705;BME280;69940;53.120;8.764;2023-06-10T04:04:14;101941.00;;;16.18;71.98
79705;BME280;69940;53.120;8.764;2023-06-10T04:06:44;101942.00;;;16.16;71.97
79705;BME280;69940;53.120;8.764;2023-06-10T04:09:12;101944.00;;;16.14;71.84
79705;BME280;69940;53.120;8.764;2023-06-10T04:11:41;101944.00;;;16.14;71.82
79705;BME280;69940;53.120;8.764;2023-06-10T04:14:12;101946.00;;;16.16;71.56
79705;BME280;69940;53.120;8.764;2023-06-10T04:16:43;101947.00;;;16.18;71.53
79705;BME280;69940;53.120;8.764;2023-06-10T04:19:12;101948.00;;;16.20;71.44
79705;BME280;69940;53.120;8.764;2023-06-10T04:21:42;101950.00;;;16.22;71.49
79705;BME280;69940;53.120;8.764;2023-06-10T04:24:11;101951.00;;;16.23;71.33
79705;BME280;69940;53.120;8.764;2023-06-10T04:26:41;101951.00;;;16.24;71.44
79705;BME280;69940;53.120;8.764;2023-06-10T04:29:12;101952.00;;;16.23;71.48
79705;BME280;69940;53.120;8.764;2023-06-10T04:31:42;101952.00;;;16.21;71.31
79705;BME280;69940;53.120;8.764;2023-06-10T04:34:12;101952.00;;;16.20;71.16
79705;BME280;69940;53.120;8.764;2023-06-10T04:36:41;101951.00;;;16.20;71.27
79705;BME280;69940;53.120;8.764;2023-06-10T04:39:12;101951.00;;;16.21;71.22
79705;BME280;69940;53.120;8.764;2023-06-10T04:41:41;101952.00;;;16.22;71.00
79705;BME280;69940;53.120;8.764;2023-06-10T04:44:12;101953.00;;;16.24;70.87
79705;BME280;69940;53.120;8.764;2023-06-10T04:46:41;101953.00;;;16.25;70.55
79705;BME280;69940;53.120;8.764;2023-06-10T04:49:12;101953.00;;;16.27;70.34
79705;BME280;69940;53.120;8.764;2023-06-10T04:51:41;101954.00;;;16.27;70.43
79705;BME280;69940;53.120;8.764;2023-06-10T04:54:12;101954.00;;;16.25;70.52
79705;BME280;69940;53.120;8.764;2023-06-10T04:56:42;101955.00;;;16.24;70.58
79705;BME280;69940;53.120;8.764;2023-06-10T04:59:11;101955.00;;;16.22;70.74
79705;BME280;69940;53.120;8.764;2023-06-10T05:01:41;101955.00;;;16.20;70.72
79705;BME280;69940;53.120;8.764;2023-06-10T05:04:11;101955.00;;;16.18;70.68
79705;BME280;69940;53.120;8.764;2023-06-10T05:06:41;101954.00;;;16.18;70.40
79705;BME280;69940;53.120;8.764;2023-06-10T05:09:11;101954.00;;;16.18;70.28
79705;BME280;69940;53.120;8.764;2023-06-10T05:11:42;101954.00;;;16.20;70.14
79705;BME280;69940;53.120;8.764;2023-06-10T05:14:12;101955.00;;;16.22;70.13
79705;BME280;69940;53.120;8.764;2023-06-10T05:16:43;101953.00;;;16.24;70.01
79705;BME280;69940;53.120;8.764;2023-06-10T05:19:12;101952.00;;;16.26;69.94
79705;BME280;69940;53.120;8.764;2023-06-10T05:21:42;101952.00;;;16.29;69.77
79705;BME280;69940;53.120;8.764;2023-06-10T05:24:12;101952.00;;;16.32;69.66
79705;BME280;69940;53.120;8.764;2023-06-10T05:26:42;101952.00;;;16.35;69.57
79705;BME280;69940;53.120;8.764;2023-06-10T05:29:12;101953.00;;;16.39;69.65
79705;BME280;69940;53.120;8.764;2023-06-10T05:31:42;101955.00;;;16.42;69.62
79705;BME280;69940;53.120;8.764;2023-06-10T05:34:12;101957.00;;;16.44;69.26
79705;BME280;69940;53.120;8.764;2023-06-10T05:36:41;101958.00;;;16.46;69.19
79705;BME280;69940;53.120;8.764;2023-06-10T05:39:12;101959.00;;;16.48;69.03
79705;BME280;69940;53.120;8.764;2023-06-10T05:41:42;101959.00;;;16.51;69.02
79705;BME280;69940;53.120;8.764;2023-06-10T05:44:11;101959.00;;;16.54;68.90
79705;BME280;69940;53.120;8.764;2023-06-10T05:46:41;101959.00;;;16.58;68.85
79705;BME280;69940;53.120;8.764;2023-06-10T05:49:12;101960.00;;;16.62;68.76
79705;BME280;69940;53.120;8.764;2023-06-10T05:51:41;101960.00;;;16.65;68.76
79705;BME280;69940;53.120;8.764;2023-06-10T05:54:12;101959.00;;;16.65;68.76
79705;BME280;69940;53.120;8.764;2023-06-10T05:56:41;101958.00;;;16.66;68.62
79705;BME280;69940;53.120;8.764;2023-06-10T05:59:12;101958.00;;;16.68;68.47
79705;BME280;69940;53.120;8.764;2023-06-10T06:01:41;101958.00;;;16.69;68.63
79705;BME280;69940;53.120;8.764;2023-06-10T06:04:12;101959.00;;;16.73;68.43
79705;BME280;69940;53.120;8.764;2023-06-10T06:06:41;101959.00;;;16.78;68.48
79705;BME280;69940;53.120;8.764;2023-06-10T06:09:12;101958.00;;;16.82;68.30
79705;BME280;69940;53.120;8.764;2023-06-10T06:11:41;101959.00;;;16.84;68.19
79705;BME280;69940;53.120;8.764;2023-06-10T06:14:11;101961.00;;;16.87;67.99
79705;BME280;69940;53.120;8.764;2023-06-10T06:16:42;101963.00;;;16.91;67.87
79705;BME280;69940;53.120;8.764;2023-06-10T06:19:11;101965.00;;;16.94;67.78
79705;BME280;69940;53.120;8.764;2023-06-10T06:21:41;101969.00;;;16.95;67.89
79705;BME280;69940;53.120;8.764;2023-06-10T06:24:11;101972.00;;;16.95;67.91
79705;BME280;69940;53.120;8.764;2023-06-10T06:26:42;101976.00;;;16.96;67.70
79705;BME280;69940;53.120;8.764;2023-06-10T06:29:12;101979.00;;;16.98;67.80
79705;BME280;69940;53.120;8.764;2023-06-10T06:31:41;101980.00;;;17.01;67.56
79705;BME280;69940;53.120;8.764;2023-06-10T06:34:11;101979.00;;;17.05;67.71
79705;BME280;69940;53.120;8.764;2023-06-10T06:36:41;101979.00;;;17.08;67.60
79705;BME280;69940;53.120;8.764;2023-06-10T06:39:12;101979.00;;;17.11;67.79
79705;BME280;69940;53.120;8.764;2023-06-10T06:41:42;101980.00;;;17.14;67.75
79705;BME280;69940;53.120;8.764;2023-06-10T06:44:11;101979.00;;;17.18;67.45
79705;BME280;69940;53.120;8.764;2023-06-10T06:46:42;101978.00;;;17.22;67.23
79705;BME280;69940;53.120;8.764;2023-06-10T06:49:12;101977.00;;;17.23;67.31
79705;BME280;69940;53.120;8.764;2023-06-10T06:51:42;101976.00;;;17.23;67.44
79705;BME280;69940;53.120;8.764;2023-06-10T06:54:12;101975.00;;;17.23;67.54
79705;BME280;69940;53.120;8.764;2023-06-10T06:56:41;101974.00;;;17.22;67.75
79705;BME280;69940;53.120;8.764;2023-06-10T06:59:14;101974.00;;;17.20;68.03
79705;BME280;69940;53.120;8.764;2023-06-10T07:01:42;101973.00;;;17.18;68.39
79705;BME280;69940;53.120;8.764;2023-06-10T07:04:13;101973.00;;;17.18;68.20
79705;BME280;69940;53.120;8.764;2023-06-10T07:06:42;101973.00;;;17.20;68.24
79705;BME280;69940;53.120;8.764;2023-06-10T07:09:12;101974.00;;;17.21;68.22
79705;BME280;69940;53.120;8.764;2023-06-10T07:11:42;101973.00;;;17.21;67.82
79705;BME280;69940;53.120;8.764;2023-06-10T07:14:11;101972.00;;;17.21;67.97
79705;BME280;69940;53.120;8.764;2023-06-10T07:16:42;101972.00;;;17.23;67.89
79705;BME280;69940;53.120;8.764;2023-06-10T07:19:12;101972.00;;;17.25;67.82
79705;BME280;69940;53.120;8.764;2023-06-10T07:21:42;101973.00;;;17.28;67.82
79705;BME280;69940;53.120;8.764;2023-06-10T07:24:12;101974.00;;;17.31;67.68
79705;BME280;69940;53.120;8.764;2023-06-10T07:26:41;101977.00;;;17.34;67.64
79705;BME280;69940;53.120;8.764;2023-06-10T07:29:12;101976.00;;;17.38;67.43
79705;BME280;69940;53.120;8.764;2023-06-10T07:31:42;101976.00;;;17.42;67.41
79705;BME280;69940;53.120;8.764;2023-06-10T07:34:12;101976.00;;;17.46;67.59
79705;BME280;69940;53.120;8.764;2023-06-10T07:36:42;101976.00;;;17.49;67.21
79705;BME280;69940;53.120;8.764;2023-06-10T07:39:12;101976.00;;;17.52;66.90
79705;BME280;69940;53.120;8.764;2023-06-10T07:41:41;101976.00;;;17.55;67.04
79705;BME280;69940;53.120;8.764;2023-06-10T07:44:12;101976.00;;;17.57;66.89
79705;BME280;69940;53.120;8.764;2023-06-10T07:46:41;101975.00;;;17.60;66.90
79705;BME280;69940;53.120;8.764;2023-06-10T07:49:12;101974.00;;;17.64;66.99
79705;BME280;69940;53.120;8.764;2023-06-10T07:51:42;101975.00;;;17.68;67.10
79705;BME280;69940;53.120;8.764;2023-06-10T07:54:13;101975.00;;;17.73;66.97
79705;BME280;69940;53.120;8.764;2023-06-10T07:56:42;101974.00;;;17.77;66.59
79705;BME280;69940;53.120;8.764;2023-06-10T07:59:13;101974.00;;;17.82;66.79
79705;BME280;69940;53.120;8.764;2023-06-10T08:01:43;101972.00;;;17.85;66.81
79705;BME280;69940;53.120;8.764;2023-06-10T08:04:12;101970.00;;;17.87;66.82
79705;BME280;69940;53.120;8.764;2023-06-10T08:06:42;101969.00;;;17.91;66.98
79705;BME280;69940;53.120;8.764;2023-06-10T08:09:11;101967.00;;;17.95;66.50
79705;BME280;69940;53.120;8.764;2023-06-10T08:11:42;101967.00;;;18.00;66.15
79705;BME280;69940;53.120;8.764;2023-06-10T08:14:12;101967.00;;;18.04;65.97
79705;BME280;69940;53.120;8.764;2023-06-10T08:16:43;101964.00;;;18.08;65.98
79705;BME280;69940;53.120;8.764;2023-06-10T08:19:12;101963.00;;;18.13;66.03
79705;BME280;69940;53.120;8.764;2023-06-10T08:21:42;101962.00;;;18.17;65.59
79705;BME280;69940;53.120;8.764;2023-06-10T08:24:12;101961.00;;;18.20;65.25
79705;BME280;69940;53.120;8.764;2023-06-10T08:26:42;101959.00;;;18.23;65.28
79705;BME280;69940;53.120;8.764;2023-06-10T08:29:12;101957.00;;;18.25;65.76
79705;BME280;69940;53.120;8.764;2023-06-10T08:31:43;101955.00;;;18.29;66.02
79705;BME280;69940;53.120;8.764;2023-06-10T08:34:12;101953.00;;;18.32;66.34
79705;BME280;69940;53.120;8.764;2023-06-10T08:36:43;101952.00;;;18.37;65.83
79705;BME280;69940;53.120;8.764;2023-06-10T08:39:11;101950.00;;;18.42;65.58
79705;BME280;69940;53.120;8.764;2023-06-10T08:41:43;101949.00;;;18.48;65.22
79705;BME280;69940;53.120;8.764;2023-06-10T08:44:22;101948.00;;;18.53;65.31
79705;BME280;69940;53.120;8.764;2023-06-10T08:46:45;101948.00;;;18.57;65.20
79705;BME280;69940;53.120;8.764;2023-06-10T08:49:19;101949.00;;;18.62;65.14
79705;BME280;69940;53.120;8.764;2023-06-10T08:51:42;101949.00;;;18.67;64.76
79705;BME280;69940;53.120;8.764;2023-06-10T08:54:17;101948.00;;;18.72;64.54
79705;BME280;69940;53.120;8.764;2023-06-10T08:56:43;101946.00;;;18.77;64.58
79705;BME280;69940;53.120;8.764;2023-06-10T08:59:12;101945.00;;;18.82;64.38
79705;BME280;69940;53.120;8.764;2023-06-10T09:01:43;101944.00;;;18.87;64.62
79705;BME280;69940;53.120;8.764;2023-06-10T09:04:13;101944.00;;;18.91;64.27
79705;BME280;69940;53.120;8.764;2023-06-10T09:06:42;101943.00;;;18.94;64.28
79705;BME280;69940;53.120;8.764;2023-06-10T09:09:14;101943.00;;;18.98;64.34
79705;BME280;69940;53.120;8.764;2023-06-10T09:11:42;101942.00;;;19.01;63.66
79705;BME280;69940;53.120;8.764;2023-06-10T09:14:13;101941.00;;;19.04;63.57
79705;BME280;69940;53.120;8.764;2023-06-10T09:16:42;101940.00;;;19.08;63.96
79705;BME280;69940;53.120;8.764;2023-06-10T09:19:12;101938.00;;;19.13;64.02
79705;BME280;69940;53.120;8.764;2023-06-10T09:21:42;101936.00;;;19.18;64.12
79705;BME280;69940;53.120;8.764;2023-06-10T09:24:11;101935.00;;;19.22;63.78
79705;BME280;69940;53.120;8.764;2023-06-10T09:26:43;101935.00;;;19.28;63.76
79705;BME280;69940;53.120;8.764;2023-06-10T09:29:12;101936.00;;;19.33;63.08
79705;BME280;69940;53.120;8.764;2023-06-10T09:31:43;101937.00;;;19.38;62.78
79705;BME280;69940;53.120;8.764;2023-06-10T09:34:13;101937.00;;;19.43;62.89
79705;BME280;69940;53.120;8.764;2023-06-10T09:36:42;101938.00;;;19.48;63.01
79705;BME280;69940;53.120;8.764;2023-06-10T09:39:16;101937.00;;;19.53;62.03
79705;BME280;69940;53.120;8.764;2023-06-10T09:41:43;101936.00;;;19.58;62.15
79705;BME280;69940;53.120;8.764;2023-06-10T09:44:13;101935.00;;;19.64;61.48
79705;BME280;69940;53.120;8.764;2023-06-10T09:46:42;101934.00;;;19.69;60.43
79705;BME280;69940;53.120;8.764;2023-06-10T09:49:12;101932.00;;;19.74;60.31
79705;BME280;69940;53.120;8.764;2023-06-10T09:51:53;101930.00;;;19.79;60.07
79705;BME280;69940;53.120;8.764;2023-06-10T09:54:12;101930.00;;;19.83;60.53
79705;BME280;69940;53.120;8.764;2023-06-10T09:56:47;101926.00;;;19.87;60.84
79705;BME280;69940;53.120;8.764;2023-06-10T09:59:12;101923.00;;;19.92;60.78
79705;BME280;69940;53.120;8.764;2023-06-10T10:01:41;101922.00;;;19.97;59.83
79705;BME280;69940;53.120;8.764;2023-06-10T10:04:12;101921.00;;;20.02;59.62
79705;BME280;69940;53.120;8.764;2023-06-10T10:06:42;101921.00;;;20.07;59.53
79705;BME280;69940;53.120;8.764;2023-06-10T10:09:12;101921.00;;;20.12;59.68
79705;BME280;69940;53.120;8.764;2023-06-10T10:11:43;101920.00;;;20.18;59.46
79705;BME280;69940;53.120;8.764;2023-06-10T10:14:13;101919.00;;;20.24;60.14
79705;BME280;69940;53.120;8.764;2023-06-10T10:16:42;101920.00;;;20.31;60.03
79705;BME280;69940;53.120;8.764;2023-06-10T10:19:27;101919.00;;;20.38;59.53
79705;BME280;69940;53.120;8.764;2023-06-10T10:21:50;101919.00;;;20.46;58.54
79705;BME280;69940;53.120;8.764;2023-06-10T10:24:23;101919.00;;;20.53;58.39
79705;BME280;69940;53.120;8.764;2023-06-10T10:26:42;101919.00;;;20.60;58.19
79705;BME280;69940;53.120;8.764;2023-06-10T10:29:24;101919.00;;;20.65;57.78
79705;BME280;69940;53.120;8.764;2023-06-10T10:31:43;101919.00;;;20.71;57.65
79705;BME280;69940;53.120;8.764;2023-06-10T10:34:15;101918.00;;;20.76;56.71
79705;BME280;69940;53.120;8.764;2023-06-10T10:36:42;101917.00;;;20.82;56.92
79705;BME280;69940;53.120;8.764;2023-06-10T10:39:13;101915.00;;;20.88;56.84
79705;BME280;69940;53.120;8.764;2023-06-10T10:41:43;101913.00;;;20.93;56.08
79705;BME280;69940;53.120;8.764;2023-06-10T10:44:13;101910.00;;;20.99;56.45
79705;BME280;69940;53.120;8.764;2023-06-10T10:46:49;101909.00;;;21.05;55.55
79705;BME280;69940;53.120;8.764;2023-06-10T10:49:13;101910.00;;;21.12;55.08
79705;BME280;69940;53.120;8.764;2023-06-10T10:51:58;101908.00;;;21.19;53.80
79705;BME280;69940;53.120;8.764;2023-06-10T10:54:13;101906.00;;;21.25;52.96
79705;BME280;69940;53.120;8.764;2023-06-10T10:57:12;101904.00;;;21.30;52.85
79705;BME280;69940;53.120;8.764;2023-06-10T10:59:12;101905.00;;;21.35;51.95
79705;BME280;69940;53.120;8.764;2023-06-10T11:01:43;101904.00;;;21.41;50.97
79705;BME280;69940;53.120;8.764;2023-06-10T11:04:12;101905.00;;;21.45;51.17
79705;BME280;69940;53.120;8.764;2023-06-10T11:06:53;101904.00;;;21.50;50.70
79705;BME280;69940;53.120;8.764;2023-06-10T11:09:28;101902.00;;;21.54;50.69
79705;BME280;69940;53.120;8.764;2023-06-10T11:11:49;101900.00;;;21.59;51.09
79705;BME280;69940;53.120;8.764;2023-06-10T11:14:11;101897.00;;;21.63;50.33
79705;BME280;69940;53.120;8.764;2023-06-10T11:16:44;101894.00;;;21.67;49.48
79705;BME280;69940;53.120;8.764;2023-06-10T11:19:35;101892.00;;;21.71;49.20
79705;BME280;69940;53.120;8.764;2023-06-10T11:22:05;101888.00;;;21.75;48.52
79705;BME280;69940;53.120;8.764;2023-06-10T11:24:12;101885.00;;;21.79;47.96
79705;BME280;69940;53.120;8.764;2023-06-10T11:26:45;101884.00;;;21.83;47.94
79705;BME280;69940;53.120;8.764;2023-06-10T11:29:14;101882.00;;;21.88;48.01
79705;BME280;69940;53.120;8.764;2023-06-10T11:31:43;101880.00;;;21.93;47.52
79705;BME280;69940;53.120;8.764;2023-06-10T11:34:12;101877.00;;;22.00;47.56
79705;BME280;69940;53.120;8.764;2023-06-10T11:36:45;101877.00;;;22.07;45.87
79705;BME280;69940;53.120;8.764;2023-06-10T11:39:12;101875.00;;;22.14;45.28
79705;BME280;69940;53.120;8.764;2023-06-10T11:41:42;101874.00;;;22.20;45.54
79705;BME280;69940;53.120;8.764;2023-06-10T11:44:13;101874.00;;;22.26;45.46
79705;BME280;69940;53.120;8.764;2023-06-10T11:46:44;101873.00;;;22.33;45.93
79705;BME280;69940;53.120;8.764;2023-06-10T11:49:12;101872.00;;;22.40;45.14
79705;BME280;69940;53.120;8.764;2023-06-10T11:51:50;101871.00;;;22.46;44.60
79705;BME280;69940;53.120;8.764;2023-06-10T11:54:12;101870.00;;;22.50;44.82
79705;BME280;69940;53.120;8.764;2023-06-10T11:56:42;101868.00;;;22.55;44.89
79705;BME280;69940;53.120;8.764;2023-06-10T11:59:12;101867.00;;;22.58;45.71
79705;BME280;69940;53.120;8.764;2023-06-10T12:01:43;101865.00;;;22.62;46.26
79705;BME280;69940;53.120;8.764;2023-06-10T12:04:14;101864.00;;;22.66;45.69
79705;BME280;69940;53.120;8.764;2023-06-10T12:06:43;101862.00;;;22.71;45.63
79705;BME280;69940;53.120;8.764;2023-06-10T12:09:15;101859.00;;;22.75;46.05
79705;BME280;69940;53.120;8.764;2023-06-10T12:11:43;101856.00;;;22.79;45.57
79705;BME280;69940;53.120;8.764;2023-06-10T12:14:12;101854.00;;;22.83;45.65
79705;BME280;69940;53.120;8.764;2023-06-10T12:16:49;101851.00;;;22.86;44.82
79705;BME280;69940;53.120;8.764;2023-06-10T12:19:12;101848.00;;;22.90;44.39
79705;BME280;69940;53.120;8.764;2023-06-10T12:21:44;101846.00;;;22.93;44.70
79705;BME280;69940;53.120;8.764;2023-06-10T12:24:12;101844.00;;;22.99;45.05
79705;BME280;69940;53.120;8.764;2023-06-10T12:26:44;101841.00;;;23.06;44.74
79705;BME280;69940;53.120;8.764;2023-06-10T12:29:24;101839.00;;;23.14;44.67
79705;BME280;69940;53.120;8.764;2023-06-10T12:31:54;101836.00;;;23.22;44.09
79705;BME280;69940;53.120;8.764;2023-06-10T12:34:12;101834.00;;;23.29;44.10
79705;BME280;69940;53.120;8.764;2023-06-10T12:36:49;101832.00;;;23.35;43.76
79705;BME280;69940;53.120;8.764;2023-06-10T12:39:12;101829.00;;;23.40;43.47
79705;BME280;69940;53.120;8.764;2023-06-10T12:41:47;101826.00;;;23.45;43.17
79705;BME280;69940;53.120;8.764;2023-06-10T12:44:11;101822.00;;;23.50;41.19
79705;BME280;69940;53.120;8.764;2023-06-10T12:46:41;101818.00;;;23.55;41.15
79705;BME280;69940;53.120;8.764;2023-06-10T12:49:20;101816.00;;;23.60;41.06
79705;BME280;69940;53.120;8.764;2023-06-10T12:51:42;101814.00;;;23.66;41.08
79705;BME280;69940;53.120;8.764;2023-06-10T12:54:12;101812.00;;;23.74;40.73
79705;BME280;69940;53.120;8.764;2023-06-10T12:56:41;101810.00;;;23.81;40.25
79705;BME280;69940;53.120;8.764;2023-06-10T12:59:12;101809.00;;;23.86;40.22
79705;BME280;69940;53.120;8.764;2023-06-10T13:01:42;101809.00;;;23.92;39.85
79705;BME280;69940;53.120;8.764;2023-06-10T13:04:12;101807.00;;;23.98;39.98
79705;BME280;69940;53.120;8.764;2023-06-10T13:06:42;101805.00;;;24.03;39.63